Denver, Colorado
Traffic Map
Current Weather Conditions
Denver, Colorado
Broken Clouds
Broken Clouds
49°
Feels Like: 47°
Wind Chill: 47° Ceiling: 20000
Heat Index: 49° Visibility: 10mi
Dew Point: 19° Wind: 6mph
Humidity: 30% Direction: 80° (E)
Pressure: 30.12in Gusts: 0mph
Raw Report DataKBKF 280258Z 08005KT 10SM BKN200 10/M07 A3012 RMK AO2A SLP174 T00971074 58008
Traffic Incident Summary
Active as of:
Severity:
Category:
InformationThere was an issue retrieving the traffic information for this location. Please try a different location or try again shortly.
Advertisements
Track Severe Weather on mobile